Time;durP1;ratioP1;P1;durP2;ratioP2;P2;SDS_P1;SDS_P2;PMS_P1;PMS_P2;Temp;Humidity;BMP_temperature;BMP_pressure;BME280_temperature;BME280_humidity;BME280_pressure;Samples;Min_cycle;Max_cycle;Signal;HPM_P1;HPM_P2
2022/12/05 00:00:34;;;;;;;0.05;0.05;;;;;;;8.19;74.62;101704.44;7354879;19;20031;-57
2022/12/05 00:03:04;;;;;;;0.00;0.00;;;;;;;8.39;74.55;101736.63;7357233;19;20750;-57
2022/12/05 00:05:30;;;;;;;0.00;0.00;;;;;;;8.25;74.96;101713.13;7356537;19;20019;-57
2022/12/05 00:07:55;;;;;;;0.00;0.00;;;;;;;8.38;74.86;101734.03;7359422;19;20034;-58
2022/12/05 00:10:21;;;;;;;0.10;0.10;;;;;;;8.38;74.92;101734.88;7362594;19;20017;-57
2022/12/05 00:12:46;;;;;;;0.03;0.03;;;;;;;8.36;75.27;101730.50;7363720;19;20006;-57
2022/12/05 00:15:11;;;;;;;0.00;0.00;;;;;;;8.38;75.24;101734.88;7363118;19;20031;-58
2022/12/05 00:17:39;;;;;;;0.08;0.08;;;;;;;8.41;75.07;101739.22;7362359;19;20022;-56
2022/12/05 00:20:05;;;;;;;;;;;;;;;8.44;73.91;101734.91;7365473;19;20019;-58
2022/12/05 00:22:30;;;;;;;0.00;0.00;;;;;;;8.35;75.13;101734.84;7362675;19;20235;-55
2022/12/05 00:24:56;;;;;;;0.00;0.00;;;;;;;8.40;74.98;101738.34;7365364;19;20721;-57
2022/12/05 00:27:21;;;;;;;0.00;0.00;;;;;;;8.37;75.25;101727.97;7361836;19;20042;-57
2022/12/05 00:29:47;;;;;;;0.00;0.00;;;;;;;8.38;75.35;101729.69;7363983;19;20018;-58
2022/12/05 00:32:12;;;;;;;0.08;0.08;;;;;;;8.40;75.77;101732.28;7360954;19;20456;-57
2022/12/05 00:34:37;;;;;;;0.10;0.10;;;;;;;8.40;75.83;101733.16;7364336;19;20015;-58
2022/12/05 00:37:03;;;;;;;0.00;0.00;;;;;;;8.39;75.68;101728.81;7362828;19;20010;-57
2022/12/05 00:39:28;;;;;;;0.00;0.00;;;;;;;8.44;75.50;101734.91;7364314;19;20011;-58
2022/12/05 00:41:54;;;;;;;0.00;0.00;;;;;;;8.44;75.04;101741.84;7358282;19;20895;-59
2022/12/05 00:44:19;;;;;;;0.03;0.03;;;;;;;8.45;75.13;101741.84;7362658;19;20021;-56
2022/12/05 00:46:44;;;;;;;0.00;0.00;;;;;;;8.43;75.47;101740.13;7363369;19;20014;-58
2022/12/05 00:49:11;;;;;;;0.00;0.00;;;;;;;8.30;75.33;101719.19;7364572;19;20030;-57
2022/12/05 00:51:39;;;;;;;0.10;0.10;;;;;;;8.32;75.66;101734.84;7360083;19;20017;-58
2022/12/05 00:54:06;;;;;;;;;;;;;;;8.50;74.06;101753.13;7362038;19;20053;-57
2022/12/05 00:56:32;;;;;;;0.00;0.00;;;;;;;8.42;74.79;101754.00;7360600;19;19921;-61
2022/12/05 00:58:59;;;;;;;0.00;0.00;;;;;;;8.46;75.10;101759.19;7362199;19;20025;-56
2022/12/05 01:01:31;;;;;;;0.00;0.00;;;;;;;8.48;74.86;101762.69;7361303;19;20018;-58
2022/12/05 01:03:58;;;;;;;0.00;0.00;;;;;;;8.46;75.07;101766.13;7363357;19;20014;-56
2022/12/05 01:06:25;;;;;;;0.00;0.00;;;;;;;8.06;75.09;101701.81;7361943;19;20553;-56
2022/12/05 01:08:52;;;;;;;0.00;0.00;;;;;;;8.46;74.88;101774.81;7361575;19;20018;-57
2022/12/05 01:11:19;;;;;;;0.00;0.00;;;;;;;8.41;74.93;101766.13;7360422;19;20015;-58
2022/12/05 01:13:45;;;;;;;0.00;0.00;;;;;;;8.43;74.81;101784.38;7363685;19;20027;-57
2022/12/05 01:16:41;;;;;;;0.10;0.10;;;;;;;8.46;74.23;101774.81;7363029;19;20584;-56
2022/12/05 01:19:12;;;;;;;0.00;0.00;;;;;;;8.45;74.81;101790.44;7255676;19;2004431;-57
2022/12/05 01:21:38;;;;;;;0.00;0.00;;;;;;;8.27;75.03;101760.84;7363157;19;20103;-57
2022/12/05 01:24:04;;;;;;;0.00;0.00;;;;;;;8.33;74.64;101767.81;7361428;19;21607;-58
2022/12/05 01:26:29;;;;;;;0.08;0.08;;;;;;;8.42;74.98;101775.69;7362233;19;20014;-59
2022/12/05 01:28:55;;;;;;;0.00;0.00;;;;;;;8.41;74.75;101780.88;7362148;19;20007;-58
2022/12/05 01:31:27;;;;;;;0.00;0.00;;;;;;;8.45;74.72;101783.47;7359220;19;20015;-58
2022/12/05 01:33:55;;;;;;;0.00;0.00;;;;;;;8.42;74.38;101783.50;7362124;19;20097;-56
2022/12/05 01:36:21;;;;;;;;;;;;;;;8.46;73.33;101779.16;7362881;19;20066;-58
2022/12/05 01:38:47;;;;;;;0.03;0.03;;;;;;;8.41;74.66;101776.53;7361388;19;20279;-57
2022/12/05 01:41:17;;;;;;;0.08;0.08;;;;;;;8.42;74.41;101782.63;7362220;19;20002;-57
2022/12/05 01:44:01;;;;;;;0.00;0.00;;;;;;;8.43;73.76;101777.41;7360311;19;20457;-57
2022/12/05 01:46:29;;;;;;;0.00;0.00;;;;;;;8.43;74.14;101774.81;7359529;19;20018;-58
2022/12/05 01:49:02;;;;;;;0.00;0.00;;;;;;;8.31;73.83;101766.91;7362133;19;20014;-58
2022/12/05 01:51:28;;;;;;;0.00;0.00;;;;;;;8.37;73.96;101782.59;7357310;19;20387;-57
2022/12/05 01:53:54;;;;;;;0.00;0.00;;;;;;;8.39;74.59;101791.28;7360285;19;20018;-58
2022/12/05 01:56:19;;;;;;;0.00;0.00;;;;;;;8.36;74.47;101790.34;7360476;19;20006;-58
2022/12/05 01:58:46;;;;;;;0.00;0.00;;;;;;;8.40;74.27;101795.63;7361626;19;20014;-58
2022/12/05 02:01:13;;;;;;;0.00;0.00;;;;;;;8.39;74.77;101798.22;7357593;19;20453;-59
2022/12/05 02:03:40;;;;;;;0.00;0.00;;;;;;;8.40;74.67;101806.03;7360225;19;20668;-57
2022/12/05 02:06:06;;;;;;;0.10;0.10;;;;;;;8.24;74.65;101788.59;7359482;19;20581;-56
2022/12/05 02:08:32;;;;;;;0.00;0.00;;;;;;;8.40;74.33;101821.66;7360003;19;20002;-58
2022/12/05 02:10:58;;;;;;;0.00;0.00;;;;;;;8.35;74.47;101812.91;7362957;19;20379;-57
2022/12/05 02:13:41;;;;;;;0.00;0.00;;;;;;;8.41;74.70;101822.50;7362529;19;20006;-57
2022/12/05 02:16:13;;;;;;;0.00;0.00;;;;;;;8.40;74.63;101828.59;7364986;19;20664;-57
2022/12/05 02:19:14;;;;;;;0.00;0.00;;;;;;;8.43;74.24;101837.28;7364236;19;20014;-58
2022/12/05 02:22:17;;;;;;;0.00;0.00;;;;;;;8.43;74.18;101824.28;7256446;19;2004209;-57
2022/12/05 02:25:24;;;;;;;0.08;0.08;;;;;;;8.42;73.61;101822.53;7261164;19;2004255;-57
2022/12/05 02:28:10;;;;;;;0.00;0.00;;;;;;;8.42;73.99;101830.34;7261250;19;2004138;-58
2022/12/05 02:30:42;;;;;;;0.00;0.00;;;;;;;8.31;74.52;101805.94;7364813;19;20035;-57
2022/12/05 02:33:19;;;;;;;0.00;0.00;;;;;;;8.30;73.98;101801.63;7363969;19;20458;-58
2022/12/05 02:36:06;;;;;;;0.00;0.00;;;;;;;8.23;73.89;101795.53;7362115;19;20113;-57
2022/12/05 02:38:52;;;;;;;0.00;0.00;;;;;;;8.35;74.24;101822.47;7362086;19;20006;-57
2022/12/05 02:41:26;;;;;;;0.10;0.10;;;;;;;8.31;74.14;101819.88;7364184;19;20017;-58
2022/12/05 02:44:06;;;;;;;0.00;0.00;;;;;;;8.27;74.11;101814.63;7363875;19;20042;-58
2022/12/05 02:46:36;;;;;;;0.00;0.00;;;;;;;8.22;74.55;101822.41;7363675;19;20028;-58
2022/12/05 02:49:11;;;;;;;0.00;0.00;;;;;;;8.12;74.82;101811.97;7362481;19;20022;-58
2022/12/05 02:51:45;;;;;;;0.10;0.10;;;;;;;8.16;75.08;101831.91;7362790;19;20106;-57
2022/12/05 02:54:18;;;;;;;0.10;0.10;;;;;;;8.04;74.91;101817.97;7360768;19;20600;-57
2022/12/05 02:56:45;;;;;;;0.00;0.00;;;;;;;8.01;75.29;101828.38;7363480;19;20010;-56
2022/12/05 02:59:11;;;;;;;0.00;0.00;;;;;;;7.96;75.48;101827.47;7350198;19;20058;-58
2022/12/05 03:01:36;;;;;;;0.00;0.00;;;;;;;7.98;76.00;101836.16;7356699;19;20599;-57
2022/12/05 03:04:04;;;;;;;0.10;0.10;;;;;;;7.96;75.82;101832.69;7361957;19;20131;-57
2022/12/05 03:06:40;;;;;;;0.10;0.10;;;;;;;7.93;75.51;101835.25;7361217;19;20809;-57
2022/12/05 03:09:09;;;;;;;0.00;0.00;;;;;;;7.91;76.17;101839.59;7360866;19;20015;-57
2022/12/05 03:11:43;;;;;;;0.00;0.00;;;;;;;7.76;75.98;101811.75;7360607;19;20042;-57
2022/12/05 03:14:20;;;;;;;0.00;0.00;;;;;;;7.91;76.25;101834.38;7354504;19;20014;-57
2022/12/05 03:16:52;;;;;;;0.00;0.00;;;;;;;7.92;75.75;101840.44;7361319;19;20011;-58
2022/12/05 03:19:25;;;;;;;0.00;0.00;;;;;;;7.90;75.90;101834.34;7358535;19;20094;-56
2022/12/05 03:21:53;;;;;;;0.00;0.00;;;;;;;7.94;75.90;101839.59;7357353;19;20566;-57
2022/12/05 03:24:19;;;;;;;0.10;0.10;;;;;;;7.80;75.88;101813.47;7361970;19;20013;-57
2022/12/05 03:26:47;;;;;;;0.00;0.00;;;;;;;7.98;75.92;101838.75;7360735;19;20006;-57
2022/12/05 03:29:21;;;;;;;0.00;0.00;;;;;;;8.00;75.84;101837.00;7360302;19;20018;-57
2022/12/05 03:32:14;;;;;;;0.05;0.05;;;;;;;8.04;75.45;101841.38;7359295;19;20041;-57
2022/12/05 03:35:16;;;;;;;0.00;0.00;;;;;;;7.96;75.17;101824.88;7258897;19;2004603;-56
2022/12/05 03:38:14;;;;;;;0.00;0.00;;;;;;;8.07;75.60;101844.00;7258695;19;2004283;-58
2022/12/05 03:41:04;;;;;;;0.00;0.00;;;;;;;8.10;75.25;101845.75;7260266;19;2004689;-57
2022/12/05 03:43:50;;;;;;;0.00;0.00;;;;;;;8.11;75.29;101849.22;7262550;19;2004400;-58
2022/12/05 03:46:27;;;;;;;0.00;0.00;;;;;;;8.13;75.06;101844.91;7365176;19;20602;-57
2022/12/05 03:49:15;;;;;;;0.00;0.00;;;;;;;8.11;75.51;101850.13;7368178;19;20006;-58
2022/12/05 03:51:48;;;;;;;0.08;0.08;;;;;;;8.13;75.36;101852.72;7362564;19;20006;-58
2022/12/05 03:54:22;;;;;;;0.00;0.00;;;;;;;8.18;75.29;101858.81;7367321;19;20006;-57
2022/12/05 03:56:59;;;;;;;0.00;0.00;;;;;;;8.20;75.56;101857.94;7363408;19;20712;-58
2022/12/05 03:59:32;;;;;;;0.10;0.10;;;;;;;8.18;75.64;101853.59;7366481;19;20015;-57
2022/12/05 04:02:03;;;;;;;0.00;0.00;;;;;;;8.21;75.77;101856.22;7361504;19;20006;-58
2022/12/05 04:04:39;;;;;;;0.05;0.05;;;;;;;8.24;75.14;101853.63;7348754;19;20014;-57
2022/12/05 04:07:07;;;;;;;0.00;0.00;;;;;;;8.27;75.64;101867.53;7366295;19;20915;-59
2022/12/05 04:09:47;;;;;;;0.00;0.00;;;;;;;8.31;75.34;101868.41;7365226;19;20074;-57
2022/12/05 04:12:22;;;;;;;0.00;0.00;;;;;;;8.29;75.25;101863.19;7368459;19;20046;-56
2022/12/05 04:14:52;;;;;;;0.00;0.00;;;;;;;8.36;74.87;101876.25;7366617;19;20406;-57
2022/12/05 04:17:38;;;;;;;0.03;0.03;;;;;;;8.37;75.10;101873.72;7365947;19;21167;-57
2022/12/05 04:22:58;;;;;;;0.00;0.00;;;;;;;8.38;75.17;101885.84;7264141;19;2004387;-56
2022/12/05 04:25:31;;;;;;;0.00;0.00;;;;;;;8.28;75.00;101871.00;7366745;19;20433;-57
2022/12/05 04:28:24;;;;;;;0.00;0.00;;;;;;;8.44;75.27;101891.09;7365053;19;20584;-58
2022/12/05 04:31:17;;;;;;;0.00;0.00;;;;;;;8.43;75.00;101889.34;7265190;19;2004485;-57
2022/12/05 04:33:57;;;;;;;0.05;0.05;;;;;;;8.41;75.09;101884.97;7264987;19;2004313;-57
2022/12/05 04:36:22;;;;;;;0.10;0.10;;;;;;;8.42;75.53;101887.59;7365183;19;20106;-56
2022/12/05 04:38:54;;;;;;;0.10;0.10;;;;;;;8.42;75.28;101892.81;7365560;19;20130;-57
2022/12/05 04:41:31;;;;;;;0.00;0.00;;;;;;;8.46;74.99;101891.94;7367465;19;20035;-58
2022/12/05 04:44:00;;;;;;;0.00;0.00;;;;;;;8.47;74.67;101898.91;7364141;19;20565;-57
2022/12/05 04:46:26;;;;;;;0.00;0.00;;;;;;;8.40;75.19;101891.06;7368546;19;20018;-56
2022/12/05 04:48:59;;;;;;;0.03;0.03;;;;;;;8.47;75.04;101898.91;7362354;19;20026;-57
2022/12/05 04:51:29;;;;;;;0.05;0.05;;;;;;;8.47;75.27;101898.06;7367264;19;20031;-58
2022/12/05 04:54:03;;;;;;;0.10;0.10;;;;;;;8.47;74.83;101896.31;7359497;19;20011;-57
2022/12/05 04:56:33;;;;;;;0.00;0.00;;;;;;;8.46;75.48;101894.56;7366247;19;20027;-57
2022/12/05 04:58:58;;;;;;;0.00;0.00;;;;;;;8.44;75.16;101885.88;7365926;19;20026;-57
2022/12/05 05:01:32;;;;;;;0.10;0.10;;;;;;;8.48;75.31;101900.66;7363928;19;20474;-56
2022/12/05 05:04:21;;;;;;;0.00;0.00;;;;;;;8.38;74.98;101888.44;7364118;19;20018;-56
2022/12/05 05:06:47;;;;;;;0.00;0.00;;;;;;;8.45;75.40;101897.16;7364650;19;20013;-55
2022/12/05 05:09:12;;;;;;;0.10;0.10;;;;;;;8.40;75.31;101894.53;7367327;19;20010;-56
2022/12/05 05:11:37;;;;;;;0.05;0.05;;;;;;;8.41;75.05;101895.38;7364729;19;20011;-57
2022/12/05 05:14:03;;;;;;;0.10;0.10;;;;;;;8.47;75.53;101906.72;7363089;19;20044;-57
2022/12/05 05:16:35;;;;;;;0.00;0.00;;;;;;;8.49;75.69;101911.94;7363991;19;20022;-57
2022/12/05 05:19:01;;;;;;;0.00;0.00;;;;;;;8.47;75.60;101906.72;7367336;19;20454;-58
2022/12/05 05:21:27;;;;;;;0.10;0.10;;;;;;;8.51;75.23;101915.41;7364478;19;20044;-56
2022/12/05 05:23:54;;;;;;;0.00;0.00;;;;;;;8.47;75.16;101909.34;7366377;19;20014;-55
2022/12/05 05:26:21;;;;;;;0.05;0.05;;;;;;;8.39;75.32;101898.00;7361539;19;20046;-54
2022/12/05 05:28:47;;;;;;;0.10;0.10;;;;;;;8.50;75.61;101919.75;7366238;19;20101;-56
2022/12/05 05:31:13;;;;;;;0.00;0.00;;;;;;;8.52;75.21;101919.78;7362451;19;22301;-57
2022/12/05 05:33:39;;;;;;;0.10;0.10;;;;;;;8.48;74.75;101905.00;7365655;19;20017;-58
2022/12/05 05:36:07;;;;;;;0.10;0.10;;;;;;;8.52;75.29;101920.63;7365420;19;20566;-56
2022/12/05 05:38:36;;;;;;;;;;;;;;;8.58;74.45;101925.00;7366704;19;20101;-57
2022/12/05 05:41:02;;;;;;;0.03;0.03;;;;;;;8.27;75.20;101866.69;7365039;19;19919;-57
2022/12/05 05:43:27;;;;;;;0.10;0.10;;;;;;;8.22;74.69;101873.59;7364820;19;20016;-56
2022/12/05 05:45:53;;;;;;;0.10;0.10;;;;;;;8.48;74.60;101908.47;7361916;19;20022;-55
2022/12/05 05:48:18;;;;;;;0.00;0.00;;;;;;;8.49;74.33;101922.34;7364641;19;20015;-58
2022/12/05 05:50:43;;;;;;;0.00;0.00;;;;;;;8.50;74.68;101927.56;7364762;19;20018;-57
2022/12/05 05:53:09;;;;;;;0.00;0.00;;;;;;;8.35;74.84;101895.34;7364667;19;20874;-57
2022/12/05 05:55:37;;;;;;;0.10;0.10;;;;;;;8.48;74.72;101921.47;7365248;19;20018;-57
2022/12/05 05:58:03;;;;;;;0.03;0.03;;;;;;;8.38;74.65;101904.06;7364887;19;20018;-58
2022/12/05 06:00:28;;;;;;;0.00;0.00;;;;;;;8.38;74.60;101917.09;7362580;19;20039;-56
2022/12/05 06:02:53;;;;;;;0.00;0.00;;;;;;;8.44;74.66;101922.31;7364099;19;20031;-56
2022/12/05 06:05:19;;;;;;;0.00;0.00;;;;;;;8.33;74.90;101904.00;7362886;19;20011;-57
2022/12/05 06:07:44;;;;;;;0.10;0.10;;;;;;;8.46;75.02;101923.19;7366187;19;20355;-56
2022/12/05 06:10:10;;;;;;;0.00;0.00;;;;;;;8.23;74.99;101893.53;7361672;19;20002;-56
2022/12/05 06:12:35;;;;;;;0.00;0.00;;;;;;;8.43;74.79;101923.19;7362924;19;20370;-57
2022/12/05 06:15:00;;;;;;;0.00;0.00;;;;;;;8.42;75.24;101924.06;7362791;19;20006;-57
2022/12/05 06:17:26;;;;;;;0.00;0.00;;;;;;;8.43;75.21;101936.19;7364722;19;20545;-57
2022/12/05 06:19:51;;;;;;;0.00;0.00;;;;;;;8.42;75.35;101938.81;7361169;19;20011;-54
2022/12/05 06:22:17;;;;;;;0.00;0.00;;;;;;;8.34;75.31;101925.69;7363135;19;20840;-56
2022/12/05 06:24:42;;;;;;;0.10;0.10;;;;;;;8.40;75.35;101946.56;7362093;19;20829;-56
2022/12/05 06:27:07;;;;;;;0.10;0.10;;;;;;;8.36;75.26;101938.72;7363880;19;20023;-57
2022/12/05 06:29:34;;;;;;;0.05;0.05;;;;;;;8.38;75.28;101940.50;7360763;19;20029;-55
2022/12/05 06:32:00;;;;;;;0.00;0.00;;;;;;;8.40;75.26;101946.56;7362078;19;20801;-57
2022/12/05 06:34:25;;;;;;;0.03;0.03;;;;;;;8.35;75.63;101932.63;7360232;19;20041;-57
2022/12/05 06:36:51;;;;;;;0.00;0.00;;;;;;;8.39;75.69;101939.63;7363234;19;20612;-57
2022/12/05 06:39:16;;;;;;;0.00;0.00;;;;;;;8.41;75.37;101945.72;7363164;19;20343;-57
2022/12/05 06:41:42;;;;;;;0.05;0.05;;;;;;;8.41;75.33;101942.25;7363147;19;20010;-57
2022/12/05 06:44:08;;;;;;;0.00;0.00;;;;;;;8.42;75.26;101939.66;7362019;19;20006;-59
2022/12/05 06:46:34;;;;;;;0.00;0.00;;;;;;;8.42;75.43;101944.88;7362653;19;20017;-57
2022/12/05 06:48:59;;;;;;;0.10;0.10;;;;;;;8.35;75.33;101922.22;7362623;19;20343;-57
2022/12/05 06:51:25;;;;;;;0.00;0.00;;;;;;;8.46;75.59;101937.94;7361546;19;20011;-56
2022/12/05 06:53:50;;;;;;;0.00;0.00;;;;;;;8.42;75.47;101944.00;7363227;19;20367;-57
2022/12/05 06:56:18;;;;;;;0.10;0.10;;;;;;;8.47;75.58;101948.38;7362019;19;20026;-56
2022/12/05 06:58:46;;;;;;;0.00;0.00;;;;;;;8.37;75.27;101930.09;7348874;19;20039;-56
2022/12/05 07:03:58;;;;;;;0.08;0.08;;;;;;;8.45;75.34;101965.69;7358933;19;20033;-58
2022/12/05 07:06:24;;;;;;;0.00;0.00;;;;;;;8.39;75.11;101955.25;7360290;19;20640;-58
2022/12/05 07:08:52;;;;;;;0.00;0.00;;;;;;;8.42;74.97;101964.84;7363182;19;20044;-56
2022/12/05 07:11:18;;;;;;;0.00;0.00;;;;;;;8.41;74.65;101969.13;7362090;19;20006;-57
2022/12/05 07:13:43;;;;;;;0.00;0.00;;;;;;;8.38;74.88;101973.47;7357774;19;20021;-57
2022/12/05 07:16:08;;;;;;;0.10;0.10;;;;;;;8.32;74.70;101969.94;7358435;19;20021;-57
2022/12/05 07:18:35;;;;;;;0.00;0.00;;;;;;;8.38;74.64;101982.16;7358595;19;20034;-57
2022/12/05 07:21:04;;;;;;;0.00;0.00;;;;;;;8.37;74.81;101983.03;7362870;19;20018;-57
2022/12/05 07:23:29;;;;;;;0.00;0.00;;;;;;;8.35;75.03;101984.69;7358851;19;20701;-57
2022/12/05 07:25:56;;;;;;;0.10;0.10;;;;;;;8.30;74.75;101973.38;7359578;19;20022;-55
2022/12/05 07:28:23;;;;;;;0.00;0.00;;;;;;;8.37;74.82;101990.81;7355853;19;20014;-58
2022/12/05 07:30:48;;;;;;;0.00;0.00;;;;;;;8.34;75.30;101990.75;7355114;19;20046;-57
2022/12/05 07:33:14;;;;;;;0.10;0.10;;;;;;;8.36;75.06;101986.47;7355434;19;20010;-56
2022/12/05 07:35:39;;;;;;;0.00;0.00;;;;;;;8.33;75.28;101979.47;7354309;19;20054;-56
2022/12/05 07:38:05;;;;;;;0.00;0.00;;;;;;;8.34;75.45;101982.94;7360473;19;20466;-57
2022/12/05 07:40:31;;;;;;;0.00;0.00;;;;;;;8.32;75.51;101979.47;7358160;19;20018;-55
2022/12/05 07:42:56;;;;;;;0.00;0.00;;;;;;;8.37;75.60;101984.75;7356993;19;20014;-56
2022/12/05 07:45:22;;;;;;;0.00;0.00;;;;;;;8.21;75.45;101970.69;7361460;19;20726;-56
2022/12/05 07:47:47;;;;;;;0.00;0.00;;;;;;;8.33;75.38;101991.63;7359244;19;20014;-56
2022/12/05 07:50:13;;;;;;;0.00;0.00;;;;;;;8.34;75.65;102003.78;7340623;19;20035;-56
2022/12/05 07:52:39;;;;;;;0.00;0.00;;;;;;;8.34;75.54;102003.78;7361957;19;20039;-56
2022/12/05 07:55:06;;;;;;;0.10;0.10;;;;;;;8.29;75.63;102000.25;7358120;19;20018;-55
2022/12/05 07:57:31;;;;;;;0.10;0.10;;;;;;;8.17;75.77;101993.25;7361111;19;20372;-57
2022/12/05 07:59:56;;;;;;;0.00;0.00;;;;;;;8.32;75.29;102023.72;7358841;19;20007;-57
2022/12/05 08:02:22;;;;;;;0.10;0.10;;;;;;;8.32;75.55;102024.59;7357502;19;20027;-55
2022/12/05 08:04:47;;;;;;;0.00;0.00;;;;;;;8.31;75.43;102027.16;7353071;19;20014;-57
2022/12/05 08:07:13;;;;;;;0.00;0.00;;;;;;;8.19;75.21;102014.06;7357321;19;20014;-55
2022/12/05 08:09:38;;;;;;;0.00;0.00;;;;;;;8.29;75.40;102028.91;7360934;19;20356;-56
2022/12/05 08:12:04;;;;;;;0.10;0.10;;;;;;;7.97;75.41;101980.06;7361029;19;20366;-55
2022/12/05 08:14:29;;;;;;;0.10;0.10;;;;;;;8.29;75.29;102032.38;7360693;19;20011;-57
2022/12/05 08:16:55;;;;;;;0.10;0.10;;;;;;;8.31;75.51;102047.97;7360738;19;20007;-57
2022/12/05 08:19:20;;;;;;;0.00;0.00;;;;;;;8.27;75.38;102039.31;7359102;19;20011;-57
2022/12/05 08:21:46;;;;;;;0.05;0.05;;;;;;;8.30;75.10;102048.84;7358093;19;20880;-54
2022/12/05 08:24:11;;;;;;;0.10;0.10;;;;;;;8.29;75.07;102042.78;7358729;19;20003;-57
2022/12/05 08:26:38;;;;;;;0.00;0.00;;;;;;;8.27;75.21;102047.09;7347619;19;20121;-56
2022/12/05 08:29:08;;;;;;;0.00;0.00;;;;;;;8.28;75.05;102050.56;7359922;19;20101;-56
2022/12/05 08:31:38;;;;;;;0.00;0.00;;;;;;;8.30;75.24;102061.84;7362495;19;20015;-57
2022/12/05 08:34:04;;;;;;;0.00;0.00;;;;;;;8.17;75.03;102041.81;7364834;19;20006;-57
2022/12/05 08:36:30;;;;;;;0.00;0.00;;;;;;;8.30;75.33;102054.91;7368469;19;20013;-57
2022/12/05 08:39:04;;;;;;;0.00;0.00;;;;;;;8.31;75.51;102061.00;7365040;19;20007;-57
2022/12/05 08:41:30;;;;;;;0.00;0.00;;;;;;;8.32;75.29;102061.03;7366172;19;20370;-55
2022/12/05 08:44:07;;;;;;;0.10;0.10;;;;;;;8.24;75.34;102039.25;7364143;19;20010;-57
2022/12/05 08:46:35;;;;;;;0.00;0.00;;;;;;;8.36;75.00;102058.44;7368695;19;20389;-57
2022/12/05 08:49:01;;;;;;;0.03;0.03;;;;;;;8.28;75.39;102045.38;7365594;19;20014;-57
2022/12/05 08:51:26;;;;;;;0.05;0.05;;;;;;;8.35;75.36;102060.16;7367816;19;20027;-57
2022/12/05 08:53:52;;;;;;;0.00;0.00;;;;;;;8.34;75.36;102061.03;7363901;19;20856;-56
2022/12/05 08:56:17;;;;;;;0.00;0.00;;;;;;;8.35;75.26;102065.38;7367032;19;20027;-57
2022/12/05 08:58:43;;;;;;;0.00;0.00;;;;;;;8.17;75.16;102031.41;7365049;19;20110;-55
2022/12/05 09:01:15;;;;;;;0.00;0.00;;;;;;;8.35;75.12;102072.31;7365971;19;20028;-56
2022/12/05 09:03:41;;;;;;;0.00;0.00;;;;;;;8.32;74.94;102079.25;7364317;19;20006;-56
2022/12/05 09:06:11;;;;;;;0.00;0.00;;;;;;;8.33;75.08;102078.38;7363224;19;20067;-52
2022/12/05 09:08:37;;;;;;;0.00;0.00;;;;;;;8.31;75.51;102081.81;7364086;19;20029;-57
2022/12/05 09:11:09;;;;;;;0.08;0.08;;;;;;;8.33;74.99;102069.72;7358817;19;20011;-57
2022/12/05 09:13:35;;;;;;;0.00;0.00;;;;;;;8.29;75.46;102068.78;7348253;19;20094;-55
2022/12/05 09:16:15;;;;;;;0.00;0.00;;;;;;;8.36;74.97;102074.94;7363594;19;20018;-56
2022/12/05 09:18:41;;;;;;;0.00;0.00;;;;;;;8.34;75.55;102074.03;7362277;19;20010;-56
2022/12/05 09:21:18;;;;;;;0.00;0.00;;;;;;;8.37;74.93;102070.66;7360281;19;20030;-57
2022/12/05 09:23:44;;;;;;;0.00;0.00;;;;;;;8.37;75.17;102076.72;7361144;19;20010;-57
2022/12/05 09:26:12;;;;;;;0.10;0.10;;;;;;;8.38;75.48;102072.38;7364214;19;20018;-56
2022/12/05 09:28:38;;;;;;;0.00;0.00;;;;;;;8.45;75.51;102080.25;7359244;19;20095;-56
2022/12/05 09:31:06;;;;;;;0.00;0.00;;;;;;;8.40;75.39;102068.91;7357883;19;20089;-57
2022/12/05 09:33:34;;;;;;;0.00;0.00;;;;;;;8.58;75.17;102089.03;7359278;19;20031;-55
2022/12/05 09:36:08;;;;;;;0.00;0.00;;;;;;;8.66;75.13;102094.28;7362816;19;20745;-57
2022/12/05 09:38:33;;;;;;;0.00;0.00;;;;;;;8.61;75.42;102094.25;7363364;19;20002;-53
2022/12/05 09:42:03;;;;;;;0.00;0.00;;;;;;;8.77;74.71;102103.94;7357904;19;20027;-56
2022/12/05 09:44:45;;;;;;;0.00;0.00;;;;;;;8.84;74.88;102100.50;7260444;19;2004583;-56
2022/12/05 09:47:13;;;;;;;0.00;0.00;;;;;;;8.87;75.04;102103.97;7261091;19;2004321;-57
2022/12/05 09:49:46;;;;;;;0.00;0.00;;;;;;;8.76;75.09;102085.69;7363445;19;20006;-55
2022/12/05 09:52:23;;;;;;;0.00;0.00;;;;;;;8.55;74.65;102040.41;7363049;19;20010;-56
2022/12/05 09:54:50;;;;;;;0.10;0.10;;;;;;;8.94;74.92;102106.66;7361997;19;20774;-56
2022/12/05 09:57:18;;;;;;;0.00;0.00;;;;;;;8.97;74.58;102111.00;7356620;19;20010;-56
2022/12/05 09:59:44;;;;;;;0.00;0.00;;;;;;;9.00;74.68;102111.03;7356738;19;20010;-56
2022/12/05 10:02:33;;;;;;;0.00;0.00;;;;;;;9.07;74.58;102102.38;7359031;19;20805;-54
2022/12/05 10:05:06;;;;;;;0.00;0.00;;;;;;;9.07;74.30;102103.28;7358598;19;20494;-54
2022/12/05 10:08:10;;;;;;;0.10;0.10;;;;;;;9.07;74.78;102103.28;7359710;19;20018;-56
2022/12/05 10:10:54;;;;;;;0.00;0.00;;;;;;;9.13;74.04;102101.56;7254764;19;2004180;-56
2022/12/05 10:13:38;;;;;;;0.10;0.10;;;;;;;9.12;74.18;102105.00;7360808;19;20039;-56
2022/12/05 10:16:09;;;;;;;0.00;0.00;;;;;;;9.07;73.88;102103.28;7361849;19;20553;-57
2022/12/05 10:18:47;;;;;;;0.00;0.00;;;;;;;9.04;74.03;102091.94;7361854;19;20022;-57
2022/12/05 10:21:32;;;;;;;0.00;0.00;;;;;;;9.13;74.55;102104.19;7362790;19;20011;-57
2022/12/05 10:24:13;;;;;;;0.00;0.00;;;;;;;9.07;74.31;102084.13;7360003;19;20010;-55
2022/12/05 10:26:49;;;;;;;0.00;0.00;;;;;;;9.21;74.48;102105.06;7362836;19;20031;-57
2022/12/05 10:29:46;;;;;;;0.10;0.10;;;;;;;9.26;74.19;102108.56;7359096;19;20478;-56
2022/12/05 10:32:49;;;;;;;0.00;0.00;;;;;;;9.24;74.09;102095.53;7258439;19;2004394;-54
2022/12/05 10:35:34;;;;;;;0.00;0.00;;;;;;;9.30;73.88;102100.78;7259150;19;2004260;-57
2022/12/05 10:38:27;;;;;;;0.00;0.00;;;;;;;9.34;73.73;102109.50;7364384;19;20422;-56
2022/12/05 10:40:58;;;;;;;0.00;0.00;;;;;;;9.32;74.33;102092.94;7254756;19;2004305;-56
2022/12/05 10:43:31;;;;;;;0.00;0.00;;;;;;;9.44;74.14;102098.25;7363065;19;20014;-56
2022/12/05 10:45:57;;;;;;;0.00;0.00;;;;;;;9.55;74.77;102100.91;7362774;19;20023;-57
2022/12/05 10:48:23;;;;;;;0.00;0.00;;;;;;;9.66;74.66;102098.31;7364742;19;20980;-57
2022/12/05 10:50:52;;;;;;;0.00;0.00;;;;;;;9.82;74.20;102108.78;7362727;19;20017;-57
2022/12/05 10:53:23;;;;;;;0.00;0.00;;;;;;;9.91;73.71;102105.34;7362103;19;20014;-56
2022/12/05 10:55:50;;;;;;;0.00;0.00;;;;;;;9.91;73.78;102100.13;7358578;19;20432;-55
2022/12/05 10:58:27;;;;;;;0.00;0.00;;;;;;;9.96;73.29;102100.16;7358992;19;20521;-56
2022/12/05 11:01:14;;;;;;;0.00;0.00;;;;;;;9.79;72.99;102060.97;7363425;19;20025;-56
2022/12/05 11:03:42;;;;;;;0.10;0.10;;;;;;;9.96;73.14;102108.84;7357700;19;20006;-56
2022/12/05 11:06:29;;;;;;;0.10;0.10;;;;;;;9.79;73.39;102079.25;7364812;19;20060;-57
2022/12/05 11:09:04;;;;;;;0.00;0.00;;;;;;;9.90;73.28;102097.53;7363494;19;20002;-57
2022/12/05 11:11:34;;;;;;;0.00;0.00;;;;;;;9.84;73.16;102099.25;7359419;19;20622;-55
2022/12/05 11:14:05;;;;;;;0.03;0.03;;;;;;;9.84;72.99;102103.59;7359067;19;20011;-58
2022/12/05 11:16:31;;;;;;;0.10;0.10;;;;;;;9.78;73.59;102103.56;7356952;19;20027;-57
2022/12/05 11:19:21;;;;;;;0.00;0.00;;;;;;;9.81;73.05;102099.22;7359135;19;20015;-56
2022/12/05 11:21:48;;;;;;;0.00;0.00;;;;;;;9.77;73.94;102102.69;7257136;19;2004187;-56
2022/12/05 11:24:29;;;;;;;0.00;0.00;;;;;;;9.80;73.85;102101.84;7358854;19;20027;-56
2022/12/05 11:26:56;;;;;;;0.00;0.00;;;;;;;9.80;73.76;102104.47;7359144;19;20911;-56
2022/12/05 11:29:37;;;;;;;0.00;0.00;;;;;;;9.74;73.61;102081.84;7357340;19;20010;-57
2022/12/05 11:32:17;;;;;;;0.00;0.00;;;;;;;9.87;73.40;102106.22;7360248;19;20014;-55
2022/12/05 11:34:51;;;;;;;0.03;0.03;;;;;;;9.78;73.42;102095.75;7357902;19;20021;-55
2022/12/05 11:37:24;;;;;;;0.05;0.05;;;;;;;9.88;73.59;102110.56;7356429;19;20018;-56
2022/12/05 11:39:50;;;;;;;0.10;0.10;;;;;;;9.84;73.78;102103.59;7358540;19;20022;-55
2022/12/05 11:43:11;;;;;;;0.00;0.00;;;;;;;9.94;73.84;102107.97;7354308;19;20109;-56
2022/12/05 11:46:10;;;;;;;0.10;0.10;;;;;;;10.01;73.63;102099.28;7249176;19;2004430;-55
2022/12/05 11:48:57;;;;;;;0.03;0.03;;;;;;;10.07;73.54;102101.91;7241823;19;2004373;-55
2022/12/05 11:51:42;;;;;;;0.00;0.00;;;;;;;10.01;73.26;102074.94;7346562;19;20010;-56
2022/12/05 11:54:19;;;;;;;0.10;0.10;;;;;;;10.06;72.97;102087.13;7359571;19;20010;-56
2022/12/05 11:56:51;;;;;;;0.00;0.00;;;;;;;10.11;73.17;102092.34;7357271;19;20017;-55
2022/12/05 11:59:32;;;;;;;0.03;0.03;;;;;;;10.13;72.95;102095.81;7358519;19;20090;-57